Time;durP1;ratioP1;P1;durP2;ratioP2;P2;SDS_P1;SDS_P2;PMS_P1;PMS_P2;Temp;Humidity;BMP_temperature;BMP_pressure;BME280_temperature;BME280_humidity;BME280_pressure;Samples;Min_cycle;Max_cycle;Signal;HPM_P1;HPM_P2
2022/03/21 00:02:07;;;;;;;10.60;2.40;;;20.80;82.00;;;;;;5040398;28;20215;-90
2022/03/21 00:04:35;;;;;;;13.90;2.60;;;21.10;81.50;;;;;;5051212;28;20182;-88
2022/03/21 00:07:02;;;;;;;8.50;2.07;;;21.50;80.80;;;;;;5053152;28;20592;-89
2022/03/21 00:09:29;;;;;;;11.90;2.37;;;21.90;79.40;;;;;;5054656;28;20188;-90
2022/03/21 00:11:57;;;;;;;12.53;2.93;;;22.30;78.00;;;;;;5053331;28;20532;-91
2022/03/21 00:14:28;;;;;;;11.40;2.17;;;22.40;75.70;;;;;;5053874;28;20730;-90
2022/03/21 00:16:55;;;;;;;12.03;2.53;;;22.40;74.80;;;;;;5044522;28;20638;-88
2022/03/21 00:19:22;;;;;;;9.17;2.27;;;22.70;72.80;;;;;;5053766;28;20180;-88
2022/03/21 00:21:50;;;;;;;11.00;2.27;;;22.70;72.10;;;;;;5048787;28;20204;-82
2022/03/21 00:24:17;;;;;;;9.00;2.00;;;23.00;71.30;;;;;;5052898;28;20188;-79
2022/03/21 00:26:45;;;;;;;9.70;2.43;;;23.00;69.50;;;;;;5051272;28;20191;-81
2022/03/21 00:29:12;;;;;;;8.17;2.00;;;23.00;70.20;;;;;;5052296;28;20184;-81
2022/03/21 00:31:39;;;;;;;7.67;1.70;;;23.30;68.70;;;;;;5052813;28;20199;-79
2022/03/21 00:34:07;;;;;;;8.60;1.87;;;23.80;65.40;;;;;;5051255;28;20176;-83
2022/03/21 00:36:35;;;;;;;8.13;1.90;;;24.00;64.70;;;;;;5052441;28;20306;-77
2022/03/21 00:39:03;;;;;;;12.27;2.23;;;24.40;63.10;;;;;;5052379;28;20192;-81
2022/03/21 00:41:32;;;;;;;7.67;1.77;;;24.60;61.30;;;;;;5052126;28;20716;-79
2022/03/21 00:44:00;;;;;;;8.90;1.73;;;24.80;60.20;;;;;;5050287;28;20220;-80
2022/03/21 00:46:27;;;;;;;7.70;1.80;;;24.50;60.70;;;;;;5052949;28;20184;-82
2022/03/21 00:48:55;;;;;;;16.40;2.63;;;24.40;62.60;;;;;;5052612;28;20575;-81
2022/03/21 00:51:22;;;;;;;7.40;1.87;;;24.20;62.20;;;;;;5052139;28;20194;-81
2022/03/21 00:53:50;;;;;;;4.90;1.53;;;24.30;61.80;;;;;;5052714;28;20176;-81
2022/03/21 00:56:17;;;;;;;6.30;1.63;;;24.40;59.00;;;;;;5052473;28;20542;-81
2022/03/21 00:58:44;;;;;;;11.13;1.70;;;24.20;60.20;;;;;;5052237;28;20176;-78
2022/03/21 01:01:12;;;;;;;9.00;1.73;;;24.10;58.90;;;;;;5052150;28;20265;-77
2022/03/21 01:03:39;;;;;;;13.47;2.03;;;24.10;59.40;;;;;;5052344;28;20191;-82
2022/03/21 01:06:07;;;;;;;4.97;1.43;;;24.20;59.10;;;;;;5052423;28;20597;-79
2022/03/21 01:08:34;;;;;;;9.33;2.13;;;24.30;58.80;;;;;;5051951;28;20186;-81
2022/03/21 01:11:01;;;;;;;10.37;2.40;;;24.50;57.70;;;;;;5052238;28;20186;-78
2022/03/21 01:13:29;;;;;;;7.23;1.63;;;24.60;58.30;;;;;;5052406;28;20245;-81
2022/03/21 01:15:56;;;;;;;4.23;1.37;;;24.50;57.50;;;;;;5049282;28;20179;-81
2022/03/21 01:18:23;;;;;;;4.30;1.40;;;24.90;55.00;;;;;;5039712;28;20187;-80
2022/03/21 01:20:51;;;;;;;12.33;2.40;;;25.00;54.30;;;;;;5046651;28;20195;-85
2022/03/21 01:23:18;;;;;;;6.17;1.33;;;25.40;55.30;;;;;;5050637;28;20636;-84
2022/03/21 01:25:45;;;;;;;11.43;2.10;;;25.70;54.60;;;;;;5051936;28;20180;-74
2022/03/21 01:28:13;;;;;;;6.17;1.70;;;25.30;56.10;;;;;;5055651;28;20191;-84
2022/03/21 01:30:40;;;;;;;11.53;1.97;;;25.40;56.30;;;;;;5049861;28;20200;-85
2022/03/21 01:33:08;;;;;;;11.43;2.10;;;25.60;55.40;;;;;;5056152;28;20258;-79
2022/03/21 01:35:35;;;;;;;6.67;1.70;;;25.30;55.40;;;;;;5055608;28;20234;-82
2022/03/21 01:38:03;;;;;;;9.80;1.97;;;24.90;55.30;;;;;;5055361;28;20195;-84
2022/03/21 01:40:30;;;;;;;3.63;1.20;;;24.50;56.20;;;;;;5054528;28;20196;-80
2022/03/21 01:42:58;;;;;;;8.30;1.53;;;24.30;57.90;;;;;;5053005;28;20615;-87
2022/03/21 01:45:29;;;;;;;8.63;1.73;;;24.10;58.40;;;;;;5046895;28;20261;-82
2022/03/21 01:47:56;;;;;;;7.30;2.00;;;24.70;57.50;;;;;;5048203;28;20602;-76
2022/03/21 01:50:24;;;;;;;11.50;3.43;;;25.40;56.60;;;;;;5053732;28;20266;-82
2022/03/21 01:55:43;;;;;;;6.83;1.57;;;25.00;57.70;;;;;;5046921;28;20184;-80
2022/03/21 01:55:45;;;;;;;7.57;2.30;;;24.80;58.50;;;;;;5055519;28;20215;-82
2022/03/21 01:58:17;;;;;;;4.23;1.63;;;25.20;57.70;;;;;;5053979;28;20230;-80
2022/03/21 02:00:45;;;;;;;9.63;2.37;;;25.50;56.30;;;;;;5055077;28;20176;-80
2022/03/21 02:03:14;;;;;;;13.83;1.93;;;25.90;56.10;;;;;;5055090;28;20545;-87
2022/03/21 02:05:43;;;;;;;8.23;1.67;;;26.30;54.90;;;;;;5055351;28;20194;-79
2022/03/21 02:08:11;;;;;;;12.23;1.87;;;26.40;55.40;;;;;;5055863;28;21080;-80
2022/03/21 02:10:38;;;;;;;9.40;2.37;;;26.60;53.10;;;;;;5054710;28;20275;-77
2022/03/21 02:13:07;;;;;;;9.87;2.00;;;25.80;56.30;;;;;;5054650;28;20188;-80
2022/03/21 02:15:35;;;;;;;9.63;1.93;;;25.30;58.60;;;;;;5051123;28;20184;-82
2022/03/21 02:18:04;;;;;;;8.50;1.60;;;25.70;57.40;;;;;;5054206;28;20238;-84
2022/03/21 02:20:37;;;;;;;8.03;1.70;;;26.00;55.90;;;;;;5052099;28;20207;-81
2022/03/21 02:23:27;;;;;;;8.90;1.50;;;26.20;54.60;;;;;;5053247;28;20241;-82
2022/03/21 02:25:56;;;;;;;8.60;1.90;;;26.10;54.90;;;;;;5048808;28;20179;-84
2022/03/21 02:28:26;;;;;;;13.33;1.90;;;26.00;55.60;;;;;;5054212;28;20211;-78
2022/03/21 02:30:55;;;;;;;5.40;1.80;;;26.20;55.50;;;;;;5046589;28;20192;-76
2022/03/21 02:33:23;;;;;;;6.70;1.73;;;26.70;53.10;;;;;;5049975;28;20184;-77
2022/03/21 02:35:51;;;;;;;7.53;1.83;;;26.60;52.90;;;;;;5045221;28;20184;-72
2022/03/21 02:38:20;;;;;;;7.33;1.43;;;26.80;52.90;;;;;;5050268;28;20176;-75
2022/03/21 02:40:47;;;;;;;7.30;1.77;;;27.00;51.00;;;;;;5053862;28;20206;-77
2022/03/21 02:43:14;;;;;;;10.00;1.67;;;27.00;50.50;;;;;;5053970;28;20537;-79
2022/03/21 02:45:42;;;;;;;5.33;1.30;;;27.00;49.70;;;;;;5054010;28;20192;-78
2022/03/21 02:48:14;;;;;;;8.37;1.67;;;27.50;49.40;;;;;;5054235;28;20673;-75
2022/03/21 02:50:56;;;;;;;7.77;1.80;;;27.80;46.90;;;;;;5053414;28;20195;-83
2022/03/21 02:53:25;;;;;;;7.50;1.80;;;27.90;47.50;;;;;;5053589;28;20188;-76
2022/03/21 02:55:56;;;;;;;7.73;1.73;;;28.10;46.10;;;;;;5048769;28;20191;-84
2022/03/21 02:58:24;;;;;;;5.57;1.00;;;27.70;48.40;;;;;;5053766;28;20207;-84
2022/03/21 03:00:51;;;;;;;4.47;1.37;;;27.30;48.50;;;;;;5048291;28;20834;-79
2022/03/21 03:03:19;;;;;;;6.67;1.50;;;26.90;50.00;;;;;;5047440;28;20185;-83
2022/03/21 03:05:46;;;;;;;7.87;1.47;;;27.00;49.40;;;;;;5051912;28;20188;-83
2022/03/21 03:08:14;;;;;;;2.83;1.13;;;27.30;48.60;;;;;;5053030;28;20180;-80
2022/03/21 03:10:41;;;;;;;10.57;1.77;;;27.90;46.80;;;;;;5053771;28;20222;-80
2022/03/21 03:13:09;;;;;;;5.73;1.63;;;28.20;46.40;;;;;;5053551;28;20190;-85
2022/03/21 03:15:36;;;;;;;7.87;1.90;;;28.50;45.70;;;;;;5053553;28;20656;-77
2022/03/21 03:18:04;;;;;;;12.17;2.10;;;28.50;46.70;;;;;;5051974;28;20184;-80
2022/03/21 03:20:31;;;;;;;6.17;1.67;;;29.00;46.20;;;;;;5053419;28;20214;-77
2022/03/21 03:23:02;;;;;;;5.87;1.50;;;29.00;44.60;;;;;;5052362;28;20623;-83
2022/03/21 03:25:29;;;;;;;5.53;1.07;;;28.70;46.10;;;;;;5053382;28;20243;-81
2022/03/21 03:27:57;;;;;;;4.40;1.40;;;29.10;45.20;;;;;;5052490;28;20180;-76
2022/03/21 03:30:24;;;;;;;6.40;1.73;;;27.80;46.30;;;;;;5051933;28;20177;-74
2022/03/21 03:32:52;;;;;;;5.63;1.07;;;27.20;48.40;;;;;;5046022;28;20230;-77
2022/03/21 03:35:20;;;;;;;6.50;1.73;;;26.80;48.40;;;;;;5038793;28;20172;-83
2022/03/21 03:37:47;;;;;;;6.33;1.60;;;27.30;47.80;;;;;;5043459;28;20199;-81
2022/03/21 03:40:14;;;;;;;6.53;1.60;;;27.90;45.20;;;;;;5053715;28;20164;-78
2022/03/21 03:42:42;;;;;;;7.50;1.37;;;28.30;44.00;;;;;;5049417;28;20937;-78
2022/03/21 03:45:11;;;;;;;5.53;1.60;;;28.70;42.20;;;;;;5045945;28;20583;-78
2022/03/21 03:47:38;;;;;;;5.13;1.42;;;29.00;42.80;;;;;;5054160;28;20708;-80
2022/03/21 03:50:06;;;;;;;4.20;1.33;;;28.90;41.90;;;;;;5052835;28;20172;-83
2022/03/21 03:52:33;;;;;;;5.30;1.17;;;28.50;43.40;;;;;;5052323;28;20187;-77
2022/03/21 03:55:01;;;;;;;7.93;1.20;;;28.00;45.00;;;;;;5052216;28;20521;-75
2022/03/21 03:57:31;;;;;;;5.40;1.50;;;27.60;46.10;;;;;;5051983;28;20203;-77
2022/03/21 03:59:59;;;;;;;6.97;1.67;;;27.20;48.50;;;;;;5051984;28;20187;-76
2022/03/21 04:02:26;;;;;;;4.57;1.53;;;26.40;49.60;;;;;;5053771;28;20572;-77
2022/03/21 04:04:54;;;;;;;4.80;1.50;;;27.10;49.30;;;;;;5050731;28;20658;-76
2022/03/21 04:07:23;;;;;;;4.50;1.10;;;26.80;49.10;;;;;;5050890;28;20232;-75
2022/03/21 04:09:50;;;;;;;5.23;1.30;;;26.00;49.80;;;;;;5052485;28;20195;-80
2022/03/21 04:12:17;;;;;;;5.40;1.50;;;25.80;50.90;;;;;;5051605;28;20205;-82
2022/03/21 04:14:47;;;;;;;7.00;1.40;;;26.00;50.40;;;;;;5046924;28;20184;-83
2022/03/21 04:17:15;;;;;;;5.70;1.50;;;26.60;49.00;;;;;;5048057;28;20188;-86
2022/03/21 04:19:42;;;;;;;5.67;1.00;;;26.80;49.00;;;;;;5052838;28;20180;-77
2022/03/21 04:22:10;;;;;;;3.57;1.20;;;27.30;46.00;;;;;;5046457;28;20216;-81
2022/03/21 04:24:38;;;;;;;5.23;1.80;;;27.70;44.80;;;;;;5047039;28;20180;-80
2022/03/21 04:27:05;;;;;;;9.13;1.53;;;27.40;45.50;;;;;;5052573;28;20641;-86
2022/03/21 04:29:33;;;;;;;9.10;1.70;;;27.60;44.20;;;;;;5048109;28;20182;-81
2022/03/21 04:32:01;;;;;;;8.00;1.60;;;27.40;45.40;;;;;;5050808;28;20198;-78
2022/03/21 04:34:28;;;;;;;4.00;1.17;;;27.50;45.90;;;;;;5050292;28;20668;-84
2022/03/21 04:36:56;;;;;;;4.90;1.20;;;28.10;45.20;;;;;;5051659;28;20191;-78
2022/03/21 04:39:23;;;;;;;5.27;1.40;;;28.50;45.50;;;;;;5044712;28;20189;-76
2022/03/21 04:41:51;;;;;;;7.57;1.38;;;29.30;43.80;;;;;;5031318;28;20212;-79
2022/03/21 04:44:18;;;;;;;3.63;1.10;;;29.60;43.70;;;;;;5048778;28;20167;-81
2022/03/21 04:46:46;;;;;;;7.20;1.58;;;29.40;42.70;;;;;;5052087;28;20183;-81
2022/03/21 04:49:13;;;;;;;4.00;1.38;;;29.70;41.40;;;;;;5042943;28;20173;-78
2022/03/21 04:51:41;;;;;;;5.68;1.30;;;30.10;41.00;;;;;;5051007;28;20172;-80
2022/03/21 04:54:08;;;;;;;7.55;1.95;;;30.30;40.30;;;;;;5046047;28;20177;-79
2022/03/21 04:56:36;;;;;;;3.20;1.27;;;30.40;40.40;;;;;;5032876;28;20252;-82
2022/03/21 04:59:04;;;;;;;4.47;1.40;;;30.80;39.10;;;;;;5045077;28;20183;-78
2022/03/21 05:01:31;;;;;;;3.85;1.10;;;31.30;37.60;;;;;;5051378;28;20199;-76
2022/03/21 05:03:59;;;;;;;7.43;1.70;;;31.00;38.90;;;;;;5051507;28;20719;-81
2022/03/21 05:06:26;;;;;;;5.05;1.30;;;30.90;40.10;;;;;;5052021;28;20266;-77
2022/03/21 05:08:54;;;;;;;3.65;1.27;;;31.10;38.50;;;;;;5051589;28;20270;-86
2022/03/21 05:11:21;;;;;;;6.88;1.27;;;30.80;40.60;;;;;;5052369;28;20191;-77
2022/03/21 05:13:50;;;;;;;7.32;1.65;;;31.30;39.40;;;;;;5051520;28;20206;-77
2022/03/21 05:16:18;;;;;;;4.47;1.30;;;31.30;38.60;;;;;;5051711;28;20184;-78
2022/03/21 05:18:45;;;;;;;6.10;1.20;;;31.90;38.50;;;;;;5053563;28;20199;-80
2022/03/21 05:21:13;;;;;;;5.05;1.40;;;31.70;38.70;;;;;;5052948;28;20212;-81
2022/03/21 05:31:57;;;;;;;4.28;1.20;;;31.50;38.50;;;;;;5050658;28;20656;-82
2022/03/21 05:37:10;;;;;;;5.47;1.52;;;31.10;38.00;;;;;;5044967;28;20214;-77
2022/03/21 05:40:31;;;;;;;5.43;1.33;;;31.70;37.30;;;;;;5052433;28;20180;-79
2022/03/21 05:42:27;;;;;;;4.78;1.40;;;31.80;37.90;;;;;;5051178;28;20252;-78
2022/03/21 05:44:54;;;;;;;3.75;1.10;;;30.80;40.50;;;;;;5051384;28;20202;-79
2022/03/21 05:47:22;;;;;;;6.03;1.55;;;31.30;39.50;;;;;;5052466;28;20168;-85
2022/03/21 05:49:50;;;;;;;4.65;1.42;;;31.30;39.70;;;;;;5045777;28;20180;-79
2022/03/21 05:52:18;;;;;;;3.72;1.20;;;32.00;38.80;;;;;;5032329;28;20187;-78
2022/03/21 05:54:45;;;;;;;7.82;1.48;;;31.70;37.80;;;;;;5047645;28;20164;-84
2022/03/21 05:57:13;;;;;;;5.15;1.27;;;32.40;36.90;;;;;;5051221;28;20589;-77
2022/03/21 06:02:43;;;;;;;8.00;1.42;;;32.70;36.40;;;;;;5013596;28;20212;-79
2022/03/21 06:05:10;;;;;;;7.10;1.40;;;32.60;36.90;;;;;;5034520;28;20228;-78
2022/03/21 06:07:38;;;;;;;4.43;1.40;;;32.30;37.70;;;;;;5051972;28;20554;-79
2022/03/21 06:10:06;;;;;;;7.03;1.60;;;31.90;38.20;;;;;;5038430;28;20255;-81
2022/03/21 06:12:33;;;;;;;5.60;1.55;;;31.60;39.50;;;;;;5051681;28;20180;-77
2022/03/21 06:15:00;;;;;;;5.57;1.55;;;31.80;38.50;;;;;;5054312;28;20638;-84
2022/03/21 06:17:29;;;;;;;7.93;1.50;;;31.50;38.20;;;;;;5057262;28;20179;-84
2022/03/21 06:19:56;;;;;;;5.93;1.20;;;31.60;38.00;;;;;;5052146;28;20182;-77
2022/03/21 06:22:24;;;;;;;3.28;1.33;;;31.20;38.90;;;;;;5052170;28;20207;-77
2022/03/21 06:24:51;;;;;;;6.47;1.20;;;31.60;38.50;;;;;;5044064;28;20181;-80
2022/03/21 06:27:18;;;;;;;4.32;1.20;;;31.60;38.80;;;;;;5039990;28;20175;-82
2022/03/21 06:29:46;;;;;;;3.47;1.10;;;31.70;38.70;;;;;;5057858;28;20171;-78
2022/03/21 06:32:14;;;;;;;8.68;1.70;;;31.30;39.30;;;;;;5055822;28;20186;-77
2022/03/21 06:34:41;;;;;;;5.90;1.50;;;31.50;39.20;;;;;;5054766;28;20271;-77
2022/03/21 06:37:09;;;;;;;8.48;1.17;;;31.30;38.80;;;;;;5049062;28;20172;-77
2022/03/21 06:39:37;;;;;;;4.30;1.20;;;31.60;38.60;;;;;;5038962;28;20172;-78
2022/03/21 06:42:06;;;;;;;4.13;1.23;;;30.80;40.00;;;;;;5050652;28;20666;-78
2022/03/21 06:44:33;;;;;;;6.00;1.25;;;31.20;38.90;;;;;;5044608;28;21891;-80
2022/03/21 06:47:01;;;;;;;4.97;1.45;;;30.30;40.40;;;;;;5055083;28;20172;-77
2022/03/21 06:49:30;;;;;;;8.43;1.55;;;30.40;41.10;;;;;;5053022;28;20539;-79
2022/03/21 06:52:06;;;;;;;9.10;1.70;;;30.00;42.00;;;;;;5052101;28;20180;-81
2022/03/21 06:54:34;;;;;;;5.38;1.55;;;29.80;42.30;;;;;;5054172;28;20175;-78
2022/03/21 06:57:01;;;;;;;4.70;1.40;;;30.30;42.10;;;;;;5038278;28;20191;-77
2022/03/21 06:59:29;;;;;;;4.43;1.20;;;30.20;41.50;;;;;;5057088;28;20685;-77
2022/03/21 07:01:57;;;;;;;4.72;1.50;;;30.20;41.50;;;;;;5052052;28;20286;-77
2022/03/21 07:04:26;;;;;;;11.80;2.25;;;30.00;42.20;;;;;;5054421;28;20180;-77
2022/03/21 07:06:55;;;;;;;5.72;1.40;;;29.90;43.10;;;;;;5054493;28;20231;-81
2022/03/21 07:09:24;;;;;;;4.35;1.75;;;29.30;44.80;;;;;;5045337;28;20177;-76
2022/03/21 07:11:54;;;;;;;7.90;1.60;;;28.80;45.80;;;;;;5036626;28;20189;-78
2022/03/21 07:14:22;;;;;;;6.47;3.47;;;28.30;46.70;;;;;;5034878;28;20242;-77
2022/03/21 07:16:50;;;;;;;6.15;2.38;;;29.00;45.30;;;;;;5035806;28;20202;-77
2022/03/21 07:19:17;;;;;;;8.67;1.70;;;28.50;46.60;;;;;;5052799;28;20531;-77
2022/03/21 07:21:45;;;;;;;6.82;1.48;;;28.80;46.00;;;;;;5046574;28;20205;-77
2022/03/21 07:24:13;;;;;;;5.17;1.40;;;28.30;47.10;;;;;;5044625;28;20189;-77
2022/03/21 07:26:40;;;;;;;6.78;2.25;;;27.80;48.70;;;;;;5053987;28;20247;-77
2022/03/21 07:29:11;;;;;;;5.82;1.85;;;27.70;48.60;;;;;;5043737;28;20188;-76
2022/03/21 07:31:38;;;;;;;4.23;1.60;;;27.70;49.20;;;;;;5047026;28;20176;-79
2022/03/21 07:34:07;;;;;;;7.00;1.77;;;27.40;49.50;;;;;;5052063;28;20516;-83
2022/03/21 07:36:35;;;;;;;5.17;1.33;;;26.70;51.10;;;;;;5052228;28;20179;-77
2022/03/21 07:39:04;;;;;;;7.57;1.40;;;26.10;53.10;;;;;;5047673;28;20173;-76
2022/03/21 07:41:32;;;;;;;8.00;1.80;;;25.70;54.40;;;;;;5037203;28;20208;-76
2022/03/21 07:43:59;;;;;;;8.03;1.70;;;25.20;55.40;;;;;;5049479;28;20545;-76
2022/03/21 07:49:13;;;;;;;9.47;3.50;;;24.40;57.80;;;;;;5052536;28;20190;-77
2022/03/21 07:51:43;;;;;;;7.50;2.50;;;24.40;58.40;;;;;;5052218;28;20692;-75
2022/03/21 07:54:14;;;;;;;12.40;1.83;;;24.20;58.90;;;;;;5047608;28;20183;-76
2022/03/21 07:56:42;;;;;;;5.30;1.47;;;24.00;59.30;;;;;;5046702;28;20188;-78
2022/03/21 07:59:09;;;;;;;6.73;1.90;;;24.00;59.50;;;;;;5051722;28;20190;-77
2022/03/21 08:01:37;;;;;;;9.73;1.80;;;23.90;59.50;;;;;;5050554;28;20203;-77
2022/03/21 08:04:05;;;;;;;7.13;1.80;;;23.70;60.60;;;;;;5053895;28;20187;-77
2022/03/21 08:06:33;;;;;;;9.80;1.57;;;23.30;61.20;;;;;;5047256;28;20219;-77
2022/03/21 08:09:00;;;;;;;10.67;4.50;;;23.40;61.70;;;;;;5054235;28;20183;-77
2022/03/21 08:11:28;;;;;;;6.90;1.90;;;23.40;61.70;;;;;;5054191;28;21077;-77
2022/03/21 08:13:55;;;;;;;7.33;2.30;;;23.40;62.10;;;;;;5053477;28;20537;-77
2022/03/21 08:16:25;;;;;;;8.60;1.50;;;23.20;62.70;;;;;;5049090;28;20261;-77
2022/03/21 08:18:53;;;;;;;5.17;1.07;;;23.00;63.30;;;;;;5051999;28;20188;-77
2022/03/21 08:21:20;;;;;;;4.47;1.53;;;23.00;63.60;;;;;;5051906;28;20562;-78
2022/03/21 08:23:49;;;;;;;3.80;1.13;;;22.80;64.40;;;;;;5051389;28;20203;-76
2022/03/21 08:26:17;;;;;;;4.50;1.40;;;22.70;64.60;;;;;;5043464;28;20190;-76
2022/03/21 08:28:45;;;;;;;6.47;1.20;;;22.70;65.10;;;;;;5046716;28;20548;-77
2022/03/21 08:31:14;;;;;;;6.43;1.90;;;22.60;65.30;;;;;;5051123;28;20276;-76
2022/03/21 08:33:42;;;;;;;13.23;1.33;;;22.40;66.00;;;;;;5050882;28;20657;-77
2022/03/21 08:36:12;;;;;;;3.13;1.00;;;22.30;66.10;;;;;;5038946;28;20192;-76
2022/03/21 08:38:40;;;;;;;5.70;1.20;;;22.20;66.40;;;;;;5048106;28;20218;-77
2022/03/21 08:41:07;;;;;;;5.77;1.50;;;22.20;66.60;;;;;;5052692;28;20184;-76
2022/03/21 08:43:35;;;;;;;2.97;1.27;;;22.10;66.90;;;;;;5047101;28;20639;-76
2022/03/21 08:46:02;;;;;;;6.20;1.40;;;22.10;67.10;;;;;;5037980;28;20586;-76
2022/03/21 08:51:15;;;;;;;6.73;1.30;;;22.00;67.00;;;;;;5047802;28;20226;-77
2022/03/21 08:53:43;;;;;;;4.73;1.50;;;22.10;66.80;;;;;;5052428;28;20192;-77
2022/03/21 08:56:10;;;;;;;6.37;1.37;;;21.90;67.20;;;;;;5052561;28;20610;-76
2022/03/21 08:58:38;;;;;;;5.50;1.50;;;21.90;67.40;;;;;;5050614;28;20191;-76
2022/03/21 09:01:05;;;;;;;5.83;1.20;;;21.90;67.20;;;;;;5039671;28;20677;-77
2022/03/21 09:03:32;;;;;;;8.60;1.53;;;21.80;68.00;;;;;;5048883;28;20227;-76
2022/03/21 09:06:00;;;;;;;6.37;1.40;;;21.80;67.30;;;;;;5048986;28;20247;-76
2022/03/21 09:08:27;;;;;;;7.77;1.40;;;21.80;68.30;;;;;;5052099;28;20187;-76
2022/03/21 09:10:55;;;;;;;5.83;1.40;;;21.80;68.30;;;;;;5060008;28;20605;-78
2022/03/21 09:13:23;;;;;;;7.20;1.00;;;21.80;68.60;;;;;;5045846;28;20695;-76
2022/03/21 09:15:51;;;;;;;5.13;1.37;;;21.80;68.40;;;;;;5052460;28;20529;-75
2022/03/21 09:18:18;;;;;;;4.20;1.40;;;21.80;68.40;;;;;;5052790;28;20184;-75
2022/03/21 09:20:46;;;;;;;5.47;3.40;;;21.70;68.30;;;;;;5052022;28;20202;-75
2022/03/21 09:23:13;;;;;;;6.17;2.03;;;21.70;68.70;;;;;;5051162;28;20547;-75
2022/03/21 09:25:41;;;;;;;5.30;1.90;;;21.70;68.70;;;;;;5052093;28;20547;-76
2022/03/21 09:28:08;;;;;;;8.70;3.97;;;21.70;68.50;;;;;;5048169;28;20184;-76
2022/03/21 09:30:37;;;;;;;8.00;2.50;;;21.60;68.70;;;;;;5052048;28;20469;-76
2022/03/21 09:33:04;;;;;;;4.77;1.47;;;21.60;69.20;;;;;;5052474;28;20241;-76
2022/03/21 09:35:31;;;;;;;4.17;1.33;;;21.50;69.30;;;;;;5040339;28;20180;-76
2022/03/21 09:38:00;;;;;;;5.03;1.50;;;21.50;69.20;;;;;;5049139;28;20187;-76
2022/03/21 09:40:29;;;;;;;6.07;1.40;;;21.50;69.30;;;;;;5051814;28;20635;-75
2022/03/21 09:42:57;;;;;;;5.93;1.57;;;21.40;69.30;;;;;;5051665;28;20243;-76
2022/03/21 09:45:25;;;;;;;3.43;1.43;;;21.30;69.80;;;;;;5052312;28;20176;-76
2022/03/21 09:48:12;;;;;;;10.40;1.63;;;21.20;70.30;;;;;;5045476;28;20537;-76
2022/03/21 09:50:50;;;;;;;6.93;1.60;;;21.20;70.50;;;;;;5055600;28;20180;-75
2022/03/21 09:53:18;;;;;;;7.63;1.53;;;21.20;70.50;;;;;;5055771;28;20186;-75
2022/03/21 09:55:46;;;;;;;5.33;1.20;;;21.20;70.40;;;;;;5056147;28;20180;-75
2022/03/21 09:58:13;;;;;;;5.27;1.80;;;21.10;70.60;;;;;;5054210;28;20239;-75
2022/03/21 10:00:49;;;;;;;3.13;1.30;;;21.10;70.80;;;;;;5042738;28;20172;-75
2022/03/21 10:03:17;;;;;;;5.33;1.60;;;21.10;71.00;;;;;;5054275;28;20689;-75
2022/03/21 10:05:50;;;;;;;6.30;1.73;;;21.10;71.40;;;;;;5053588;28;20534;-74
2022/03/21 10:08:28;;;;;;;6.27;1.70;;;21.10;71.60;;;;;;5055163;28;20200;-75
2022/03/21 10:11:06;;;;;;;9.00;1.63;;;21.00;71.70;;;;;;5055695;28;20658;-76
2022/03/21 10:13:41;;;;;;;7.57;1.83;;;21.00;71.80;;;;;;5055099;28;20308;-75
2022/03/21 10:16:17;;;;;;;4.27;1.60;;;20.90;72.30;;;;;;5053857;28;20198;-75
2022/03/21 10:19:10;;;;;;;9.50;1.70;;;20.80;72.60;;;;;;5055419;28;20228;-75
2022/03/21 10:21:37;;;;;;;6.17;1.70;;;20.80;73.00;;;;;;5053791;28;20227;-78
2022/03/21 10:24:07;;;;;;;9.17;1.50;;;20.80;73.20;;;;;;5055666;28;20168;-75
2022/03/21 10:26:42;;;;;;;4.67;1.40;;;20.70;73.10;;;;;;5049262;28;20173;-75
2022/03/21 10:29:11;;;;;;;4.47;1.77;;;20.70;73.60;;;;;;5053186;28;20183;-76
2022/03/21 10:31:46;;;;;;;5.27;1.57;;;20.60;73.90;;;;;;5034330;28;20177;-75
2022/03/21 10:34:19;;;;;;;5.93;1.80;;;20.60;74.30;;;;;;5047133;28;20180;-75
2022/03/21 10:37:06;;;;;;;7.27;1.87;;;20.50;74.40;;;;;;5048636;28;20215;-75
2022/03/21 10:39:35;;;;;;;6.83;1.47;;;20.50;74.40;;;;;;5055151;28;20195;-75
2022/03/21 10:42:06;;;;;;;6.93;1.53;;;20.50;74.00;;;;;;5054446;28;20208;-75
2022/03/21 10:44:34;;;;;;;5.70;1.47;;;20.40;74.00;;;;;;5053424;28;20191;-75
2022/03/21 10:47:04;;;;;;;2.57;1.17;;;20.30;73.80;;;;;;5049599;28;20169;-76
2022/03/21 10:49:46;;;;;;;5.80;1.47;;;20.30;74.20;;;;;;5054887;28;20265;-75
2022/03/21 10:52:23;;;;;;;9.10;1.83;;;20.30;74.20;;;;;;5054240;28;20175;-76
2022/03/21 10:54:53;;;;;;;6.33;1.30;;;20.30;74.50;;;;;;5047053;28;20168;-75
2022/03/21 10:57:26;;;;;;;5.50;1.70;;;20.30;74.60;;;;;;5049370;28;20200;-76
2022/03/21 11:00:17;;;;;;;4.70;1.63;;;20.30;74.60;;;;;;5051995;28;20266;-76
2022/03/21 11:03:17;;;;;;;11.17;2.17;;;20.20;74.60;;;;;;5041674;28;20634;-76
2022/03/21 11:05:46;;;;;;;5.80;1.63;;;20.20;75.20;;;;;;5051489;28;20184;-76
2022/03/21 11:08:16;;;;;;;6.23;2.03;;;20.10;76.00;;;;;;5052079;28;20263;-76
2022/03/21 11:10:45;;;;;;;5.13;2.07;;;20.10;76.50;;;;;;5051178;28;20269;-76
2022/03/21 11:13:13;;;;;;;6.33;1.70;;;20.10;77.10;;;;;;5034104;28;20339;-76
2022/03/21 11:15:41;;;;;;;6.30;1.87;;;20.10;77.00;;;;;;5034848;28;20176;-75
2022/03/21 11:18:10;;;;;;;5.97;1.80;;;20.00;77.60;;;;;;5035052;28;20207;-75
2022/03/21 11:20:37;;;;;;;4.07;1.87;;;20.00;77.90;;;;;;5034110;28;20187;-75
2022/03/21 11:23:05;;;;;;;5.33;2.33;;;20.00;78.10;;;;;;5041948;28;20552;-75
2022/03/21 11:25:35;;;;;;;9.50;2.47;;;20.00;78.20;;;;;;5043362;28;20313;-75
2022/03/21 11:28:11;;;;;;;5.83;2.20;;;19.90;78.20;;;;;;5053184;28;20202;-75
2022/03/21 11:30:57;;;;;;;4.70;2.10;;;19.80;78.40;;;;;;5034539;28;20169;-75
2022/03/21 11:33:42;;;;;;;10.87;2.20;;;19.80;78.30;;;;;;5040221;28;20176;-75
2022/03/21 11:36:13;;;;;;;6.50;2.00;;;19.80;78.60;;;;;;5054137;28;20734;-75
2022/03/21 11:38:47;;;;;;;7.40;2.17;;;19.70;78.50;;;;;;5038148;28;20176;-75
2022/03/21 11:41:23;;;;;;;6.60;2.03;;;19.60;78.70;;;;;;5053318;28;20258;-75
2022/03/21 11:44:05;;;;;;;9.73;2.70;;;19.60;78.80;;;;;;5054635;28;20237;-75
2022/03/21 11:46:35;;;;;;;4.40;1.87;;;19.60;78.70;;;;;;5053969;28;20191;-75
2022/03/21 11:49:27;;;;;;;5.43;2.23;;;19.60;78.60;;;;;;5054040;28;20184;-75
2022/03/21 11:51:58;;;;;;;9.57;2.70;;;19.60;78.80;;;;;;5047788;28;20184;-75
2022/03/21 11:54:31;;;;;;;7.80;2.37;;;19.60;78.60;;;;;;5053991;28;20184;-75
2022/03/21 11:57:05;;;;;;;7.73;2.20;;;19.60;78.90;;;;;;5052469;28;20176;-76
2022/03/21 11:59:35;;;;;;;5.10;1.90;;;19.50;79.10;;;;;;5052337;28;20222;-75
2022/03/21 12:02:13;;;;;;;5.67;1.93;;;19.40;79.40;;;;;;5058900;28;20261;-76
2022/03/21 12:04:42;;;;;;;8.20;2.57;;;19.30;79.60;;;;;;5053199;28;20678;-75
2022/03/21 12:07:15;;;;;;;5.13;1.90;;;19.40;80.30;;;;;;5050677;28;20223;-76
2022/03/21 12:09:44;;;;;;;5.00;2.40;;;19.40;80.40;;;;;;5045869;28;20179;-75
2022/03/21 12:12:13;;;;;;;8.27;2.47;;;19.50;80.40;;;;;;5051163;28;20175;-76
2022/03/21 12:14:44;;;;;;;7.83;2.27;;;19.50;79.90;;;;;;5040932;28;20187;-76
2022/03/21 12:17:12;;;;;;;5.13;1.53;;;19.40;79.80;;;;;;5055130;28;20266;-75
2022/03/21 12:19:52;;;;;;;5.90;1.87;;;19.30;79.60;;;;;;5058588;28;20172;-75
2022/03/21 12:22:28;;;;;;;6.67;2.23;;;19.30;79.60;;;;;;5056800;28;20212;-76
2022/03/21 12:25:05;;;;;;;4.30;1.70;;;19.30;79.40;;;;;;5058261;28;20571;-76
2022/03/21 12:27:41;;;;;;;7.37;2.33;;;19.30;79.60;;;;;;5050358;28;20192;-75
2022/03/21 12:30:32;;;;;;;5.23;2.20;;;19.30;80.40;;;;;;5046326;28;20175;-76
2022/03/21 12:33:14;;;;;;;5.27;2.00;;;19.30;81.10;;;;;;5048505;28;20199;-76
2022/03/21 12:35:48;;;;;;;5.50;2.37;;;19.30;82.10;;;;;;5052628;28;20916;-75
2022/03/21 12:38:22;;;;;;;3.90;2.10;;;19.30;82.20;;;;;;5053027;28;20183;-76
2022/03/21 12:40:50;;;;;;;5.87;2.43;;;19.20;82.10;;;;;;5039595;28;20610;-76
2022/03/21 12:43:29;;;;;;;8.03;2.20;;;19.10;82.00;;;;;;5041423;28;20220;-76
2022/03/21 12:46:18;;;;;;;6.93;2.00;;;19.00;82.20;;;;;;5051093;28;20168;-76
2022/03/21 12:48:54;;;;;;;5.47;2.33;;;19.00;82.30;;;;;;5049625;28;20191;-76
2022/03/21 12:51:39;;;;;;;7.17;2.60;;;19.00;82.60;;;;;;5043124;28;20631;-75
2022/03/21 12:54:07;;;;;;;7.83;2.10;;;18.90;82.80;;;;;;5052761;28;20214;-76
2022/03/21 12:56:34;;;;;;;5.13;1.77;;;19.00;83.30;;;;;;5052513;28;20264;-76
2022/03/21 12:59:04;;;;;;;9.33;2.20;;;18.90;83.50;;;;;;5050847;28;20673;-76
2022/03/21 13:01:34;;;;;;;4.37;2.20;;;18.90;83.60;;;;;;5051103;28;20203;-76
2022/03/21 13:12:40;;;;;;;7.83;1.93;;;18.90;84.20;;;;;;5043717;28;20186;-76
2022/03/21 13:15:10;;;;;;;9.10;2.47;;;18.80;84.20;;;;;;5032634;28;20750;-75
2022/03/21 13:17:57;;;;;;;11.80;2.17;;;18.80;84.20;;;;;;5052257;28;20176;-75
2022/03/21 13:20:29;;;;;;;7.90;2.43;;;18.80;84.50;;;;;;5051233;28;20658;-76
2022/03/21 13:22:58;;;;;;;8.90;2.67;;;18.80;84.50;;;;;;5053552;28;20208;-76
2022/03/21 13:25:35;;;;;;;6.70;2.10;;;18.80;84.90;;;;;;5051970;28;20222;-75
2022/03/21 13:28:24;;;;;;;6.67;2.27;;;18.80;84.90;;;;;;5050139;28;20267;-76